sensor_id;sensor_type;location;lat;lon;timestamp;temperature;humidity
20041;DHT22;10181;48.072;9.884;2022-07-09T00:00:26;9.60;99.90
20041;DHT22;10181;48.072;9.884;2022-07-09T00:02:52;9.60;99.90
20041;DHT22;10181;48.072;9.884;2022-07-09T00:05:18;9.60;99.90
20041;DHT22;10181;48.072;9.884;2022-07-09T00:07:43;9.50;99.90
20041;DHT22;10181;48.072;9.884;2022-07-09T00:10:09;9.50;99.90
20041;DHT22;10181;48.072;9.884;2022-07-09T00:12:36;9.50;99.90
20041;DHT22;10181;48.072;9.884;2022-07-09T00:15:02;9.50;99.90
20041;DHT22;10181;48.072;9.884;2022-07-09T00:17:28;9.50;99.90
20041;DHT22;10181;48.072;9.884;2022-07-09T00:19:56;9.50;99.90
20041;DHT22;10181;48.072;9.884;2022-07-09T00:22:22;9.50;99.90
20041;DHT22;10181;48.072;9.884;2022-07-09T00:24:47;9.50;99.90
20041;DHT22;10181;48.072;9.884;2022-07-09T00:27:13;9.40;99.90
20041;DHT22;10181;48.072;9.884;2022-07-09T00:29:39;9.30;99.90
20041;DHT22;10181;48.072;9.884;2022-07-09T00:32:05;9.20;99.90
20041;DHT22;10181;48.072;9.884;2022-07-09T00:34:30;9.10;99.90
20041;DHT22;10181;48.072;9.884;2022-07-09T00:36:57;9.00;99.90
20041;DHT22;10181;48.072;9.884;2022-07-09T00:39:23;8.90;99.90
20041;DHT22;10181;48.072;9.884;2022-07-09T00:41:48;8.80;99.90
20041;DHT22;10181;48.072;9.884;2022-07-09T00:44:14;8.80;99.90
20041;DHT22;10181;48.072;9.884;2022-07-09T00:46:40;8.80;99.90
20041;DHT22;10181;48.072;9.884;2022-07-09T00:49:05;8.80;99.90
20041;DHT22;10181;48.072;9.884;2022-07-09T00:51:32;8.80;99.90
20041;DHT22;10181;48.072;9.884;2022-07-09T00:53:59;8.70;99.90
20041;DHT22;10181;48.072;9.884;2022-07-09T00:56:27;8.60;99.90
20041;DHT22;10181;48.072;9.884;2022-07-09T00:58:53;8.60;99.90
20041;DHT22;10181;48.072;9.884;2022-07-09T01:01:19;8.50;99.90
20041;DHT22;10181;48.072;9.884;2022-07-09T01:03:44;8.50;99.90
20041;DHT22;10181;48.072;9.884;2022-07-09T01:06:10;8.50;99.90
20041;DHT22;10181;48.072;9.884;2022-07-09T01:08:36;8.50;99.90
20041;DHT22;10181;48.072;9.884;2022-07-09T01:11:02;8.40;99.90
20041;DHT22;10181;48.072;9.884;2022-07-09T01:13:28;8.30;99.90
20041;DHT22;10181;48.072;9.884;2022-07-09T01:15:54;8.30;99.90
20041;DHT22;10181;48.072;9.884;2022-07-09T01:18:20;8.30;99.90
20041;DHT22;10181;48.072;9.884;2022-07-09T01:20:46;8.40;99.90
20041;DHT22;10181;48.072;9.884;2022-07-09T01:23:11;8.50;99.90
20041;DHT22;10181;48.072;9.884;2022-07-09T01:25:39;8.60;99.90
20041;DHT22;10181;48.072;9.884;2022-07-09T01:28:07;8.70;99.90
20041;DHT22;10181;48.072;9.884;2022-07-09T01:30:35;8.70;99.90
20041;DHT22;10181;48.072;9.884;2022-07-09T01:33:01;8.70;99.90
20041;DHT22;10181;48.072;9.884;2022-07-09T01:35:27;8.70;99.90
20041;DHT22;10181;48.072;9.884;2022-07-09T01:37:53;8.70;99.90
20041;DHT22;10181;48.072;9.884;2022-07-09T01:40:22;8.70;99.90
20041;DHT22;10181;48.072;9.884;2022-07-09T01:42:48;8.70;99.90
20041;DHT22;10181;48.072;9.884;2022-07-09T01:45:17;8.70;99.90
20041;DHT22;10181;48.072;9.884;2022-07-09T01:47:43;8.70;99.90
20041;DHT22;10181;48.072;9.884;2022-07-09T01:50:09;8.70;99.90
20041;DHT22;10181;48.072;9.884;2022-07-09T01:52:35;8.60;99.90
20041;DHT22;10181;48.072;9.884;2022-07-09T01:55:01;8.50;99.90
20041;DHT22;10181;48.072;9.884;2022-07-09T01:57:27;8.50;99.90
20041;DHT22;10181;48.072;9.884;2022-07-09T01:59:53;8.30;99.90
20041;DHT22;10181;48.072;9.884;2022-07-09T02:02:18;8.30;99.90
20041;DHT22;10181;48.072;9.884;2022-07-09T02:04:44;8.40;99.90
20041;DHT22;10181;48.072;9.884;2022-07-09T02:07:11;8.40;99.90
20041;DHT22;10181;48.072;9.884;2022-07-09T02:09:37;8.40;99.90
20041;DHT22;10181;48.072;9.884;2022-07-09T02:12:03;8.40;99.90
20041;DHT22;10181;48.072;9.884;2022-07-09T02:14:30;8.50;99.90
20041;DHT22;10181;48.072;9.884;2022-07-09T02:16:55;8.50;99.90
20041;DHT22;10181;48.072;9.884;2022-07-09T02:19:21;8.40;99.90
20041;DHT22;10181;48.072;9.884;2022-07-09T02:21:47;8.40;99.90
20041;DHT22;10181;48.072;9.884;2022-07-09T02:24:12;8.40;99.90
20041;DHT22;10181;48.072;9.884;2022-07-09T02:26:38;8.40;99.90
20041;DHT22;10181;48.072;9.884;2022-07-09T02:29:04;8.30;99.90
20041;DHT22;10181;48.072;9.884;2022-07-09T02:31:30;8.30;99.90
20041;DHT22;10181;48.072;9.884;2022-07-09T02:33:55;8.20;99.90
20041;DHT22;10181;48.072;9.884;2022-07-09T02:36:22;8.10;99.90
20041;DHT22;10181;48.072;9.884;2022-07-09T02:38:48;8.00;99.90
20041;DHT22;10181;48.072;9.884;2022-07-09T02:41:17;8.00;99.90
20041;DHT22;10181;48.072;9.884;2022-07-09T02:57:54;7.90;99.90
20041;DHT22;10181;48.072;9.884;2022-07-09T03:01:11;7.90;99.90
20041;DHT22;10181;48.072;9.884;2022-07-09T03:04:34;7.80;99.90
20041;DHT22;10181;48.072;9.884;2022-07-09T03:08:01;7.70;99.90
20041;DHT22;10181;48.072;9.884;2022-07-09T03:17:30;7.70;99.90
20041;DHT22;10181;48.072;9.884;2022-07-09T03:19:56;7.70;99.90
20041;DHT22;10181;48.072;9.884;2022-07-09T03:22:22;7.70;99.90
20041;DHT22;10181;48.072;9.884;2022-07-09T03:24:47;7.60;99.90
20041;DHT22;10181;48.072;9.884;2022-07-09T03:27:13;7.60;99.90
20041;DHT22;10181;48.072;9.884;2022-07-09T03:29:38;7.60;99.90
20041;DHT22;10181;48.072;9.884;2022-07-09T03:32:05;7.60;99.90
20041;DHT22;10181;48.072;9.884;2022-07-09T03:34:30;7.60;99.90
20041;DHT22;10181;48.072;9.884;2022-07-09T03:36:56;7.60;99.90
20041;DHT22;10181;48.072;9.884;2022-07-09T03:39:22;7.60;99.90
20041;DHT22;10181;48.072;9.884;2022-07-09T03:41:47;7.60;99.90
20041;DHT22;10181;48.072;9.884;2022-07-09T03:44:13;7.50;99.90
20041;DHT22;10181;48.072;9.884;2022-07-09T03:46:39;7.50;99.90
20041;DHT22;10181;48.072;9.884;2022-07-09T03:49:04;7.50;99.90
20041;DHT22;10181;48.072;9.884;2022-07-09T03:51:30;7.40;99.90
20041;DHT22;10181;48.072;9.884;2022-07-09T03:53:56;7.40;99.90
20041;DHT22;10181;48.072;9.884;2022-07-09T03:56:21;7.40;99.90
20041;DHT22;10181;48.072;9.884;2022-07-09T03:58:47;7.50;99.90
20041;DHT22;10181;48.072;9.884;2022-07-09T04:01:12;7.50;99.90
20041;DHT22;10181;48.072;9.884;2022-07-09T04:03:38;7.60;99.90
20041;DHT22;10181;48.072;9.884;2022-07-09T04:06:04;7.60;99.90
20041;DHT22;10181;48.072;9.884;2022-07-09T04:08:30;7.70;99.90
20041;DHT22;10181;48.072;9.884;2022-07-09T04:10:55;7.80;99.90
20041;DHT22;10181;48.072;9.884;2022-07-09T04:13:21;7.80;99.90
20041;DHT22;10181;48.072;9.884;2022-07-09T04:15:47;7.90;99.90
20041;DHT22;10181;48.072;9.884;2022-07-09T04:18:15;7.90;99.90
20041;DHT22;10181;48.072;9.884;2022-07-09T04:20:41;7.90;99.90
20041;DHT22;10181;48.072;9.884;2022-07-09T04:23:07;7.90;99.90
20041;DHT22;10181;48.072;9.884;2022-07-09T04:25:33;7.90;99.90
20041;DHT22;10181;48.072;9.884;2022-07-09T04:27:58;7.90;99.90
20041;DHT22;10181;48.072;9.884;2022-07-09T04:30:26;7.90;99.90
20041;DHT22;10181;48.072;9.884;2022-07-09T04:32:51;8.00;99.90
20041;DHT22;10181;48.072;9.884;2022-07-09T04:35:17;8.00;99.90
20041;DHT22;10181;48.072;9.884;2022-07-09T04:37:43;8.00;99.90
20041;DHT22;10181;48.072;9.884;2022-07-09T04:40:09;8.00;99.90
20041;DHT22;10181;48.072;9.884;2022-07-09T04:42:34;8.00;99.90
20041;DHT22;10181;48.072;9.884;2022-07-09T04:45:00;8.10;99.90
20041;DHT22;10181;48.072;9.884;2022-07-09T04:47:26;8.10;99.90
20041;DHT22;10181;48.072;9.884;2022-07-09T04:49:52;8.30;99.90
20041;DHT22;10181;48.072;9.884;2022-07-09T04:52:17;8.40;99.90
20041;DHT22;10181;48.072;9.884;2022-07-09T04:54:46;8.50;99.90
20041;DHT22;10181;48.072;9.884;2022-07-09T04:57:12;8.70;99.90
20041;DHT22;10181;48.072;9.884;2022-07-09T04:59:38;8.80;99.90
20041;DHT22;10181;48.072;9.884;2022-07-09T05:02:04;9.00;99.90
20041;DHT22;10181;48.072;9.884;2022-07-09T05:04:30;9.10;99.90
20041;DHT22;10181;48.072;9.884;2022-07-09T05:06:56;9.20;99.90
20041;DHT22;10181;48.072;9.884;2022-07-09T05:09:21;9.30;99.90
20041;DHT22;10181;48.072;9.884;2022-07-09T05:11:47;9.50;99.90
20041;DHT22;10181;48.072;9.884;2022-07-09T05:14:13;9.50;99.90
20041;DHT22;10181;48.072;9.884;2022-07-09T05:16:39;9.70;99.90
20041;DHT22;10181;48.072;9.884;2022-07-09T05:19:10;9.80;99.90
20041;DHT22;10181;48.072;9.884;2022-07-09T05:21:40;9.90;99.90
20041;DHT22;10181;48.072;9.884;2022-07-09T05:24:06;10.00;99.90
20041;DHT22;10181;48.072;9.884;2022-07-09T05:26:33;10.20;99.90
20041;DHT22;10181;48.072;9.884;2022-07-09T05:28:59;10.30;99.90
20041;DHT22;10181;48.072;9.884;2022-07-09T05:31:25;10.50;99.90
20041;DHT22;10181;48.072;9.884;2022-07-09T05:33:51;10.60;99.90
20041;DHT22;10181;48.072;9.884;2022-07-09T05:36:17;10.80;99.90
20041;DHT22;10181;48.072;9.884;2022-07-09T05:38:43;10.90;99.90
20041;DHT22;10181;48.072;9.884;2022-07-09T05:41:09;11.10;99.90
20041;DHT22;10181;48.072;9.884;2022-07-09T05:43:36;11.30;99.90
20041;DHT22;10181;48.072;9.884;2022-07-09T05:46:01;11.40;99.90
20041;DHT22;10181;48.072;9.884;2022-07-09T05:48:27;11.60;99.90
20041;DHT22;10181;48.072;9.884;2022-07-09T05:50:53;11.70;99.90
20041;DHT22;10181;48.072;9.884;2022-07-09T05:53:20;11.90;99.90
20041;DHT22;10181;48.072;9.884;2022-07-09T05:55:46;11.90;99.90
20041;DHT22;10181;48.072;9.884;2022-07-09T05:58:12;12.10;99.90
20041;DHT22;10181;48.072;9.884;2022-07-09T06:00:37;12.20;99.90
20041;DHT22;10181;48.072;9.884;2022-07-09T06:03:03;12.30;99.90
20041;DHT22;10181;48.072;9.884;2022-07-09T06:05:29;12.50;99.90
20041;DHT22;10181;48.072;9.884;2022-07-09T06:07:55;12.60;99.90
20041;DHT22;10181;48.072;9.884;2022-07-09T06:10:21;12.70;99.90
20041;DHT22;10181;48.072;9.884;2022-07-09T06:12:46;12.80;99.90
20041;DHT22;10181;48.072;9.884;2022-07-09T06:15:12;12.90;99.90
20041;DHT22;10181;48.072;9.884;2022-07-09T06:17:38;12.90;99.90
20041;DHT22;10181;48.072;9.884;2022-07-09T06:20:05;13.00;99.90
20041;DHT22;10181;48.072;9.884;2022-07-09T06:22:31;13.10;99.90
20041;DHT22;10181;48.072;9.884;2022-07-09T06:24:57;13.20;99.90
20041;DHT22;10181;48.072;9.884;2022-07-09T06:27:22;13.30;99.90
20041;DHT22;10181;48.072;9.884;2022-07-09T06:29:48;13.50;99.90
20041;DHT22;10181;48.072;9.884;2022-07-09T06:32:14;13.60;99.90
20041;DHT22;10181;48.072;9.884;2022-07-09T06:34:39;13.70;99.90
20041;DHT22;10181;48.072;9.884;2022-07-09T06:37:05;13.90;99.90
20041;DHT22;10181;48.072;9.884;2022-07-09T06:39:31;14.10;99.90
20041;DHT22;10181;48.072;9.884;2022-07-09T06:42:13;14.40;99.90
20041;DHT22;10181;48.072;9.884;2022-07-09T06:44:39;14.70;99.90
20041;DHT22;10181;48.072;9.884;2022-07-09T06:47:05;14.90;99.90
20041;DHT22;10181;48.072;9.884;2022-07-09T06:49:32;15.20;99.90
20041;DHT22;10181;48.072;9.884;2022-07-09T06:51:58;15.40;99.90
20041;DHT22;10181;48.072;9.884;2022-07-09T06:54:24;15.50;99.90
20041;DHT22;10181;48.072;9.884;2022-07-09T06:56:49;15.60;99.90
20041;DHT22;10181;48.072;9.884;2022-07-09T06:59:15;15.70;99.90
20041;DHT22;10181;48.072;9.884;2022-07-09T07:01:42;15.70;99.90
20041;DHT22;10181;48.072;9.884;2022-07-09T07:04:07;15.70;99.90
20041;DHT22;10181;48.072;9.884;2022-07-09T07:06:33;15.80;99.90
20041;DHT22;10181;48.072;9.884;2022-07-09T07:08:59;15.90;99.90
20041;DHT22;10181;48.072;9.884;2022-07-09T07:11:24;16.00;99.90
20041;DHT22;10181;48.072;9.884;2022-07-09T07:13:50;16.20;99.90
20041;DHT22;10181;48.072;9.884;2022-07-09T07:16:16;16.40;99.90
20041;DHT22;10181;48.072;9.884;2022-07-09T07:18:41;16.60;99.90
20041;DHT22;10181;48.072;9.884;2022-07-09T07:21:07;16.70;99.90
20041;DHT22;10181;48.072;9.884;2022-07-09T07:23:33;16.80;99.90
20041;DHT22;10181;48.072;9.884;2022-07-09T07:25:59;16.80;99.90
20041;DHT22;10181;48.072;9.884;2022-07-09T07:28:26;16.90;99.90
20041;DHT22;10181;48.072;9.884;2022-07-09T07:30:51;17.00;99.90
20041;DHT22;10181;48.072;9.884;2022-07-09T07:33:17;17.10;99.90
20041;DHT22;10181;48.072;9.884;2022-07-09T07:35:46;17.10;99.90
20041;DHT22;10181;48.072;9.884;2022-07-09T07:38:11;17.30;99.90
20041;DHT22;10181;48.072;9.884;2022-07-09T07:40:37;17.40;99.90
20041;DHT22;10181;48.072;9.884;2022-07-09T07:43:03;17.40;99.90
20041;DHT22;10181;48.072;9.884;2022-07-09T07:45:29;17.50;99.90
20041;DHT22;10181;48.072;9.884;2022-07-09T07:47:54;17.70;99.90
20041;DHT22;10181;48.072;9.884;2022-07-09T07:50:21;17.80;99.90
20041;DHT22;10181;48.072;9.884;2022-07-09T07:52:47;18.00;99.90
20041;DHT22;10181;48.072;9.884;2022-07-09T07:55:13;18.10;99.90
20041;DHT22;10181;48.072;9.884;2022-07-09T07:57:38;18.10;99.90
20041;DHT22;10181;48.072;9.884;2022-07-09T08:00:04;18.10;99.90
20041;DHT22;10181;48.072;9.884;2022-07-09T08:02:31;18.20;99.90
20041;DHT22;10181;48.072;9.884;2022-07-09T08:04:57;18.40;99.90
20041;DHT22;10181;48.072;9.884;2022-07-09T08:07:23;18.50;99.90
20041;DHT22;10181;48.072;9.884;2022-07-09T08:09:48;18.50;99.90
20041;DHT22;10181;48.072;9.884;2022-07-09T08:12:14;18.60;99.90
20041;DHT22;10181;48.072;9.884;2022-07-09T08:14:40;18.60;99.90
20041;DHT22;10181;48.072;9.884;2022-07-09T08:17:05;18.60;99.90
20041;DHT22;10181;48.072;9.884;2022-07-09T08:19:31;18.60;99.90
20041;DHT22;10181;48.072;9.884;2022-07-09T08:21:57;18.50;99.90
20041;DHT22;10181;48.072;9.884;2022-07-09T08:24:22;18.50;99.90
20041;DHT22;10181;48.072;9.884;2022-07-09T08:26:48;18.50;99.90
20041;DHT22;10181;48.072;9.884;2022-07-09T08:29:14;18.60;99.90
20041;DHT22;10181;48.072;9.884;2022-07-09T08:31:40;18.70;99.90
20041;DHT22;10181;48.072;9.884;2022-07-09T08:34:05;18.80;99.90
20041;DHT22;10181;48.072;9.884;2022-07-09T08:36:31;18.80;99.90
20041;DHT22;10181;48.072;9.884;2022-07-09T08:38:56;18.80;99.90
20041;DHT22;10181;48.072;9.884;2022-07-09T08:41:23;18.90;99.90
20041;DHT22;10181;48.072;9.884;2022-07-09T08:43:52;18.90;99.90
20041;DHT22;10181;48.072;9.884;2022-07-09T08:46:18;18.90;99.90
20041;DHT22;10181;48.072;9.884;2022-07-09T08:48:45;18.90;99.90
20041;DHT22;10181;48.072;9.884;2022-07-09T08:51:11;18.80;99.90
20041;DHT22;10181;48.072;9.884;2022-07-09T08:53:41;18.70;99.90
20041;DHT22;10181;48.072;9.884;2022-07-09T08:56:08;18.80;99.90
20041;DHT22;10181;48.072;9.884;2022-07-09T08:58:34;18.90;99.90
20041;DHT22;10181;48.072;9.884;2022-07-09T09:01:00;19.10;99.90
20041;DHT22;10181;48.072;9.884;2022-07-09T09:03:26;19.30;99.90
20041;DHT22;10181;48.072;9.884;2022-07-09T09:06:06;19.40;99.90
20041;DHT22;10181;48.072;9.884;2022-07-09T09:08:36;19.40;99.90
20041;DHT22;10181;48.072;9.884;2022-07-09T09:11:06;19.20;99.90
20041;DHT22;10181;48.072;9.884;2022-07-09T09:13:46;19.10;99.90
20041;DHT22;10181;48.072;9.884;2022-07-09T09:16:13;19.00;99.90
20041;DHT22;10181;48.072;9.884;2022-07-09T09:21:08;18.80;99.90
20041;DHT22;10181;48.072;9.884;2022-07-09T09:23:42;18.70;99.90
20041;DHT22;10181;48.072;9.884;2022-07-09T09:28:57;18.90;99.90
20041;DHT22;10181;48.072;9.884;2022-07-09T09:31:24;19.00;99.90
20041;DHT22;10181;48.072;9.884;2022-07-09T09:34:15;19.20;99.90
20041;DHT22;10181;48.072;9.884;2022-07-09T09:36:48;19.30;99.90
20041;DHT22;10181;48.072;9.884;2022-07-09T09:41:44;19.50;99.90
20041;DHT22;10181;48.072;9.884;2022-07-09T09:46:49;19.60;99.90
20041;DHT22;10181;48.072;9.884;2022-07-09T09:49:15;19.60;99.90
20041;DHT22;10181;48.072;9.884;2022-07-09T09:51:49;19.60;99.90
20041;DHT22;10181;48.072;9.884;2022-07-09T09:54:16;19.70;99.90
20041;DHT22;10181;48.072;9.884;2022-07-09T09:56:42;19.70;99.90
20041;DHT22;10181;48.072;9.884;2022-07-09T09:59:09;19.80;99.90
20041;DHT22;10181;48.072;9.884;2022-07-09T10:01:35;19.70;99.90
20041;DHT22;10181;48.072;9.884;2022-07-09T10:04:01;19.70;99.90
20041;DHT22;10181;48.072;9.884;2022-07-09T10:06:27;19.60;99.90
20041;DHT22;10181;48.072;9.884;2022-07-09T10:08:54;19.60;99.90
20041;DHT22;10181;48.072;9.884;2022-07-09T10:11:21;19.60;99.90
20041;DHT22;10181;48.072;9.884;2022-07-09T10:13:53;19.60;99.90
20041;DHT22;10181;48.072;9.884;2022-07-09T10:16:19;19.70;99.90
20041;DHT22;10181;48.072;9.884;2022-07-09T10:18:52;19.70;99.90
20041;DHT22;10181;48.072;9.884;2022-07-09T10:21:18;19.80;99.90
20041;DHT22;10181;48.072;9.884;2022-07-09T10:23:55;19.80;99.90
20041;DHT22;10181;48.072;9.884;2022-07-09T10:26:21;20.00;99.90
20041;DHT22;10181;48.072;9.884;2022-07-09T10:28:46;20.00;99.90
20041;DHT22;10181;48.072;9.884;2022-07-09T10:31:19;20.10;99.90
20041;DHT22;10181;48.072;9.884;2022-07-09T10:33:51;20.20;99.90
20041;DHT22;10181;48.072;9.884;2022-07-09T10:36:21;20.10;99.90
20041;DHT22;10181;48.072;9.884;2022-07-09T10:38:54;20.10;99.90
20041;DHT22;10181;48.072;9.884;2022-07-09T10:41:23;20.20;99.90
20041;DHT22;10181;48.072;9.884;2022-07-09T10:43:50;20.20;99.90
20041;DHT22;10181;48.072;9.884;2022-07-09T10:46:16;20.30;99.90
20041;DHT22;10181;48.072;9.884;2022-07-09T10:48:44;20.40;99.90
20041;DHT22;10181;48.072;9.884;2022-07-09T10:51:17;20.60;99.90
20041;DHT22;10181;48.072;9.884;2022-07-09T10:53:43;20.80;99.90
20041;DHT22;10181;48.072;9.884;2022-07-09T10:56:09;21.00;99.90
20041;DHT22;10181;48.072;9.884;2022-07-09T10:58:35;21.00;99.90
20041;DHT22;10181;48.072;9.884;2022-07-09T11:01:01;21.10;99.90
20041;DHT22;10181;48.072;9.884;2022-07-09T11:03:30;21.10;99.90
20041;DHT22;10181;48.072;9.884;2022-07-09T11:05:57;21.10;99.90
20041;DHT22;10181;48.072;9.884;2022-07-09T11:08:22;21.20;99.90
20041;DHT22;10181;48.072;9.884;2022-07-09T11:10:48;21.20;99.90
20041;DHT22;10181;48.072;9.884;2022-07-09T11:13:14;21.30;99.90
20041;DHT22;10181;48.072;9.884;2022-07-09T11:15:40;21.30;99.90
20041;DHT22;10181;48.072;9.884;2022-07-09T11:20:39;21.60;99.90
20041;DHT22;10181;48.072;9.884;2022-07-09T11:23:07;21.70;99.90
20041;DHT22;10181;48.072;9.884;2022-07-09T11:25:33;21.70;99.90
20041;DHT22;10181;48.072;9.884;2022-07-09T11:28:00;21.70;99.90
20041;DHT22;10181;48.072;9.884;2022-07-09T11:30:27;21.90;99.90
20041;DHT22;10181;48.072;9.884;2022-07-09T11:32:54;21.90;99.90
20041;DHT22;10181;48.072;9.884;2022-07-09T11:35:38;22.00;99.90
20041;DHT22;10181;48.072;9.884;2022-07-09T11:38:05;22.00;99.00
20041;DHT22;10181;48.072;9.884;2022-07-09T11:40:33;22.00;99.90
20041;DHT22;10181;48.072;9.884;2022-07-09T11:42:59;21.80;99.90
20041;DHT22;10181;48.072;9.884;2022-07-09T11:45:27;21.70;96.80
20041;DHT22;10181;48.072;9.884;2022-07-09T11:50:28;21.30;99.10
20041;DHT22;10181;48.072;9.884;2022-07-09T11:52:54;21.20;99.30
20041;DHT22;10181;48.072;9.884;2022-07-09T11:55:21;21.10;96.90
20041;DHT22;10181;48.072;9.884;2022-07-09T11:58:26;21.00;99.30
20041;DHT22;10181;48.072;9.884;2022-07-09T12:00:44;21.00;99.90
20041;DHT22;10181;48.072;9.884;2022-07-09T12:03:10;20.90;99.90
20041;DHT22;10181;48.072;9.884;2022-07-09T12:05:36;21.00;99.90
20041;DHT22;10181;48.072;9.884;2022-07-09T12:08:07;21.10;96.90
20041;DHT22;10181;48.072;9.884;2022-07-09T12:10:35;21.30;99.50
20041;DHT22;10181;48.072;9.884;2022-07-09T12:13:01;21.60;98.30
20041;DHT22;10181;48.072;9.884;2022-07-09T12:15:27;21.70;97.90
20041;DHT22;10181;48.072;9.884;2022-07-09T12:17:55;21.80;99.90
20041;DHT22;10181;48.072;9.884;2022-07-09T12:20:31;21.70;96.00
20041;DHT22;10181;48.072;9.884;2022-07-09T12:22:57;21.70;99.20
20041;DHT22;10181;48.072;9.884;2022-07-09T12:25:23;21.70;96.90
20041;DHT22;10181;48.072;9.884;2022-07-09T12:27:50;21.70;99.00
20041;DHT22;10181;48.072;9.884;2022-07-09T12:30:16;21.70;97.00
20041;DHT22;10181;48.072;9.884;2022-07-09T12:32:42;21.60;99.10
20041;DHT22;10181;48.072;9.884;2022-07-09T12:35:09;21.60;99.90
20041;DHT22;10181;48.072;9.884;2022-07-09T12:37:36;21.90;99.40
20041;DHT22;10181;48.072;9.884;2022-07-09T12:40:02;21.90;97.40
20041;DHT22;10181;48.072;9.884;2022-07-09T12:42:28;21.90;96.30
20041;DHT22;10181;48.072;9.884;2022-07-09T12:44:54;22.10;97.80
20041;DHT22;10181;48.072;9.884;2022-07-09T12:47:19;22.20;95.70
20041;DHT22;10181;48.072;9.884;2022-07-09T12:49:45;22.30;97.60
20041;DHT22;10181;48.072;9.884;2022-07-09T12:52:11;22.30;97.70
20041;DHT22;10181;48.072;9.884;2022-07-09T12:54:36;22.40;99.40
20041;DHT22;10181;48.072;9.884;2022-07-09T12:57:03;22.30;96.90
20041;DHT22;10181;48.072;9.884;2022-07-09T12:59:29;22.30;95.80
20041;DHT22;10181;48.072;9.884;2022-07-09T13:01:54;22.30;96.50
20041;DHT22;10181;48.072;9.884;2022-07-09T13:04:20;22.40;98.40
20041;DHT22;10181;48.072;9.884;2022-07-09T13:06:45;22.40;97.50
20041;DHT22;10181;48.072;9.884;2022-07-09T13:09:11;22.50;97.50
20041;DHT22;10181;48.072;9.884;2022-07-09T13:11:37;22.50;97.80
20041;DHT22;10181;48.072;9.884;2022-07-09T13:14:04;22.50;95.10
20041;DHT22;10181;48.072;9.884;2022-07-09T13:16:30;22.40;94.90
20041;DHT22;10181;48.072;9.884;2022-07-09T13:18:55;22.40;96.10
20041;DHT22;10181;48.072;9.884;2022-07-09T13:21:22;22.30;94.30
20041;DHT22;10181;48.072;9.884;2022-07-09T13:23:48;22.40;96.70
20041;DHT22;10181;48.072;9.884;2022-07-09T13:26:14;22.60;96.00
20041;DHT22;10181;48.072;9.884;2022-07-09T13:28:40;22.80;95.30
20041;DHT22;10181;48.072;9.884;2022-07-09T13:31:06;22.90;96.60
20041;DHT22;10181;48.072;9.884;2022-07-09T13:33:32;23.00;95.80
20041;DHT22;10181;48.072;9.884;2022-07-09T13:35:59;23.00;94.60
20041;DHT22;10181;48.072;9.884;2022-07-09T13:38:26;23.00;92.30
20041;DHT22;10181;48.072;9.884;2022-07-09T13:40:53;22.80;95.10
20041;DHT22;10181;48.072;9.884;2022-07-09T13:43:18;23.00;94.00
20041;DHT22;10181;48.072;9.884;2022-07-09T13:45:44;23.10;95.50
20041;DHT22;10181;48.072;9.884;2022-07-09T13:48:10;23.10;95.20
20041;DHT22;10181;48.072;9.884;2022-07-09T13:50:35;23.10;96.10
20041;DHT22;10181;48.072;9.884;2022-07-09T13:53:02;22.80;91.80
20041;DHT22;10181;48.072;9.884;2022-07-09T13:55:29;22.70;92.90
20041;DHT22;10181;48.072;9.884;2022-07-09T13:57:55;22.60;92.00
20041;DHT22;10181;48.072;9.884;2022-07-09T14:00:21;22.70;93.50
20041;DHT22;10181;48.072;9.884;2022-07-09T14:02:47;22.80;96.40
20041;DHT22;10181;48.072;9.884;2022-07-09T14:05:13;22.80;92.90
20041;DHT22;10181;48.072;9.884;2022-07-09T14:07:39;22.90;92.90
20041;DHT22;10181;48.072;9.884;2022-07-09T14:10:05;22.90;91.70
20041;DHT22;10181;48.072;9.884;2022-07-09T14:12:31;22.90;91.30
20041;DHT22;10181;48.072;9.884;2022-07-09T14:14:57;23.00;91.20
20041;DHT22;10181;48.072;9.884;2022-07-09T14:17:23;22.90;93.10
20041;DHT22;10181;48.072;9.884;2022-07-09T14:19:49;22.80;93.00
20041;DHT22;10181;48.072;9.884;2022-07-09T14:22:15;22.70;91.40
20041;DHT22;10181;48.072;9.884;2022-07-09T14:24:41;22.60;91.10
20041;DHT22;10181;48.072;9.884;2022-07-09T14:27:07;22.40;91.10
20041;DHT22;10181;48.072;9.884;2022-07-09T14:29:32;22.40;94.50
20041;DHT22;10181;48.072;9.884;2022-07-09T14:31:58;22.30;92.60
20041;DHT22;10181;48.072;9.884;2022-07-09T14:34:24;22.30;93.30
20041;DHT22;10181;48.072;9.884;2022-07-09T14:36:50;22.30;93.80
20041;DHT22;10181;48.072;9.884;2022-07-09T14:39:17;22.30;93.80
20041;DHT22;10181;48.072;9.884;2022-07-09T14:41:43;22.30;93.80
20041;DHT22;10181;48.072;9.884;2022-07-09T14:44:09;22.50;94.90
20041;DHT22;10181;48.072;9.884;2022-07-09T14:46:35;22.60;92.70
20041;DHT22;10181;48.072;9.884;2022-07-09T14:49:00;22.50;92.10
20041;DHT22;10181;48.072;9.884;2022-07-09T14:51:26;22.50;92.20
20041;DHT22;10181;48.072;9.884;2022-07-09T14:53:52;22.50;95.80
20041;DHT22;10181;48.072;9.884;2022-07-09T14:56:18;22.50;93.10
20041;DHT22;10181;48.072;9.884;2022-07-09T14:58:43;22.50;96.70
20041;DHT22;10181;48.072;9.884;2022-07-09T15:01:09;22.60;97.00
20041;DHT22;10181;48.072;9.884;2022-07-09T15:03:35;22.60;97.50
20041;DHT22;10181;48.072;9.884;2022-07-09T15:06:01;22.50;92.70
20041;DHT22;10181;48.072;9.884;2022-07-09T15:08:26;22.40;93.80
20041;DHT22;10181;48.072;9.884;2022-07-09T15:10:52;22.30;94.20
20041;DHT22;10181;48.072;9.884;2022-07-09T15:13:18;22.20;95.00
20041;DHT22;10181;48.072;9.884;2022-07-09T15:15:44;22.30;95.90
20041;DHT22;10181;48.072;9.884;2022-07-09T15:18:12;22.30;94.50
20041;DHT22;10181;48.072;9.884;2022-07-09T15:20:38;22.40;93.00
20041;DHT22;10181;48.072;9.884;2022-07-09T15:23:04;22.20;93.30
20041;DHT22;10181;48.072;9.884;2022-07-09T15:25:29;22.20;94.00
20041;DHT22;10181;48.072;9.884;2022-07-09T15:27:55;22.20;94.60
20041;DHT22;10181;48.072;9.884;2022-07-09T15:30:21;22.20;96.10
20041;DHT22;10181;48.072;9.884;2022-07-09T15:32:48;22.30;97.10
20041;DHT22;10181;48.072;9.884;2022-07-09T15:35:14;22.20;94.70
20041;DHT22;10181;48.072;9.884;2022-07-09T15:37:40;22.20;94.20
20041;DHT22;10181;48.072;9.884;2022-07-09T15:40:07;22.20;94.20
20041;DHT22;10181;48.072;9.884;2022-07-09T15:42:33;22.20;94.70
20041;DHT22;10181;48.072;9.884;2022-07-09T15:44:59;22.10;95.90
20041;DHT22;10181;48.072;9.884;2022-07-09T15:47:24;22.00;94.70
20041;DHT22;10181;48.072;9.884;2022-07-09T15:49:50;22.00;96.50
20041;DHT22;10181;48.072;9.884;2022-07-09T15:52:17;22.10;95.70
20041;DHT22;10181;48.072;9.884;2022-07-09T15:54:43;22.10;95.20
20041;DHT22;10181;48.072;9.884;2022-07-09T15:57:09;22.30;93.50
20041;DHT22;10181;48.072;9.884;2022-07-09T15:59:35;22.40;96.40
20041;DHT22;10181;48.072;9.884;2022-07-09T16:02:00;22.50;94.90
20041;DHT22;10181;48.072;9.884;2022-07-09T16:04:26;22.40;95.20
20041;DHT22;10181;48.072;9.884;2022-07-09T16:06:51;22.50;94.30
20041;DHT22;10181;48.072;9.884;2022-07-09T16:09:17;22.60;93.30